Leadville, CO

2:46 AM MDT on September 17, 2014 (GMT -0600)
Buena Vista | Change Station
CLOSE
Current Station
Airport
Location: Buena Vista,
Elevation: 7946 ft
Nearby Weather Stations

Elev 7946 ft 38.81 °N, 106.12 °W | Updated 11 minutes ago

Clear
Clear
49 °F
Feels Like 49 °F
N
6
Wind Variable Wind from NW

Today
High -- | Low -- °F
--% Chance of Precip.
Yesterday
High -- | Low -- °F
Precip. -- in
6:48 AM 7:10 PM
Last Quarter, 38% visible
Pressure 30.33 in
Visibility 10.0 miles
Clouds Clear
Dew Point 32 °F
Humidity 53%
Rainfall 0.00 in
Snow Depth Not available.
UV 0 out of 12
Pollen 8.10 out of 12
Air Quality Not available.
Flu Activity Not available.
METAR KAEJ 170835Z AUTO 31005KT 10SM CLR 10/00 A3033 RMK AO2 T00950003

More Conditions Fewer Conditions

Pressure 30.33 in
Visibility 10.0 miles
Clouds Clear
Dew Point 32 °F
Humidity 53%
Rainfall 0.00 in
Snow Depth Not available.
UV 0 out of 12
Pollen 8.10 out of 12
Air Quality Not available.
Flu Activity Not available.
METAR KAEJ 170835Z AUTO 31005KT 10SM CLR 10/00 A3033 RMK AO2 T00950003

More Conditions Fewer Conditions

10-Day Weather Forecast

Almanac

Astronomy

Sep. 17, 2014 Rise Set
Actual Time 6:48 AM MDT 7:10 PM MDT
Civil Twilight 6:21 AM MDT 7:36 PM MDT
Nautical Twilight 5:49 AM MDT 8:08 PM MDT
Astronomical Twilight 5:17 AM MDT 8:40 PM MDT
Moon 12:51 AM MDT 3:20 PM MDT
Length of Visible Light 13h 15m
Length of Day
12h 21m
Tomorrow will be 2m 33s shorter.
Last Quarter, 38% of the Moon is Illuminated
Today
Last Quarter
Sep 24
New
Oct 1
First Quarter
Oct 8
Full
Oct 15
Last Quarter

Today's Extremes

State Highs State Lows

Community

WunderPhotos

Upload Photos

1,753,990 photos uploaded!

Nearby

Snow Depth

Station Depth Elevation
McClure Pass 0 in 9500 ft
Rabbit Ears 0 in 9400 ft
Hoosier Pass 0 in 11400 ft
Ute Creek 0 in 10650 ft
Bison Lake 0 in 10880 ft

Earthquake Activity

City Distance Mag. Time & Date
No recent earthquake activity has been reported nearby.
Minimum magnitude displayed is 2.5.

Coastal Water Temperatures

Place Temperature
No Stations Reporting

Nearby Weather Stations